Time;durP1;ratioP1;P1;durP2;ratioP2;P2;SDS_P1;SDS_P2;PMS_P1;PMS_P2;Temp;Humidity;BMP_temperature;BMP_pressure;BME280_temperature;BME280_humidity;BME280_pressure;Samples;Min_cycle;Max_cycle;Signal;HPM_P1;HPM_P2
2021/12/17 00:00:16;;;;;;;36.10;29.30;;;;;;;-0.51;100.00;97250.34;6177006;23;20389;-68
2021/12/17 00:03:11;;;;;;;39.53;30.08;;;;;;;-0.53;100.00;97262.47;6177586;23;20416;-68
2021/12/17 00:08:16;;;;;;;36.13;29.08;;;;;;;-0.55;100.00;97256.47;6175565;23;20072;-68
2021/12/17 00:10:44;;;;;;;33.17;28.05;;;;;;;-0.54;100.00;97264.22;6176832;23;20001;-68
2021/12/17 00:13:10;;;;;;;38.00;30.67;;;;;;;-0.55;100.00;97256.47;6178315;23;20396;-68
2021/12/17 00:15:37;;;;;;;34.67;28.45;;;;;;;-0.57;100.00;97269.44;6178562;23;20024;-68
2021/12/17 00:18:11;;;;;;;32.78;27.65;;;;;;;-0.56;100.00;97268.56;6178491;23;20016;-68
2021/12/17 00:53:28;;;;;;;39.30;31.05;;;;;;;-0.63;100.00;97285.97;6177491;23;20012;-69
2021/12/17 00:55:54;;;;;;;42.90;31.02;;;;;;;-0.64;100.00;97288.59;6177422;23;20345;-68
2021/12/17 00:58:19;;;;;;;42.22;32.13;;;;;;;-0.64;100.00;97284.25;6177843;23;20005;-68
2021/12/17 01:00:45;;;;;;;37.90;30.58;;;;;;;-0.65;100.00;97292.91;6178340;23;20076;-69
2021/12/17 01:03:10;;;;;;;42.83;31.13;;;;;;;-0.66;100.00;97292.97;6177815;23;20020;-69
2021/12/17 01:05:36;;;;;;;40.67;30.30;;;;;;;-0.66;100.00;97287.78;6177437;23;20020;-68
2021/12/17 01:08:04;;;;;;;35.85;28.98;;;;;;;-0.66;100.00;97291.19;6178632;23;20031;-69
2021/12/17 01:10:43;;;;;;;35.00;29.00;;;;;;;-0.56;100.00;97301.34;6178651;23;20529;-69
2021/12/17 01:13:10;;;;;;;36.20;28.35;;;;;;;-0.50;100.00;97306.41;6178586;23;20009;-69
2021/12/17 01:15:38;;;;;;;42.10;29.23;;;;;;;-0.46;100.00;97300.25;6178668;23;20001;-69
2021/12/17 01:18:09;;;;;;;35.28;28.67;;;;;;;-0.51;100.00;97305.53;6178850;22;20034;-69
2021/12/17 01:42:18;;;;;;;38.65;28.80;;;;;;;-0.63;100.00;97280.78;6141527;23;20072;-68
2021/12/17 01:44:44;;;;;;;37.85;28.52;;;;;;;-0.64;100.00;97284.25;6179938;23;20436;-68
2021/12/17 01:47:11;;;;;;;38.80;29.80;;;;;;;-0.65;100.00;97286.91;6179770;23;20089;-68
2021/12/17 02:00:24;;;;;;;38.08;28.08;;;;;;;-0.71;100.00;97293.03;6180034;23;19915;-68
2021/12/17 02:02:53;;;;;;;38.72;29.15;;;;;;;-0.59;100.00;97287.59;6179692;23;20013;-68
2021/12/17 02:05:19;;;;;;;42.53;31.63;;;;;;;-0.68;100.00;97292.97;6180017;23;20012;-68
2021/12/17 02:07:46;;;;;;;40.20;31.35;;;;;;;-0.72;100.00;97286.16;6179760;23;20005;-68
2021/12/17 02:28:49;;;;;;;36.80;27.10;;;;;;;-0.68;100.00;97286.94;6179559;23;20012;-68
2021/12/17 02:31:32;;;;;;;34.50;26.70;;;;;;;-0.68;100.00;97292.97;6179564;23;20047;-69
2021/12/17 02:34:04;;;;;;;30.55;26.13;;;;;;;-0.68;100.00;97290.38;6179391;23;20445;-68
2021/12/17 02:36:33;;;;;;;34.47;26.05;;;;;;;-0.70;100.00;97304.22;6178838;23;20013;-69
2021/12/17 02:47:19;;;;;;;30.58;26.05;;;;;;;-0.59;100.00;97291.94;6179505;23;20020;-68
2021/12/17 02:49:47;;;;;;;31.63;24.95;;;;;;;-0.49;100.00;97303.75;6179586;23;20005;-68
2021/12/17 02:52:14;;;;;;;34.08;27.58;;;;;;;-0.49;100.00;97302.91;6179469;23;20396;-69
2021/12/17 02:54:40;;;;;;;40.95;31.25;;;;;;;-0.39;100.00;97309.59;6180004;23;20009;-68
2021/12/17 02:57:07;;;;;;;42.38;32.10;;;;;;;-0.54;100.00;97313.38;6179243;23;20509;-68
2021/12/17 02:59:34;;;;;;;46.25;32.00;;;;;;;-0.74;100.00;97314.63;6179717;23;20005;-68
2021/12/17 03:02:02;;;;;;;43.92;32.63;;;;;;;-0.82;100.00;97324.31;6179457;23;20084;-68
2021/12/17 03:04:29;;;;;;;39.50;30.98;;;;;;;-0.83;100.00;97319.16;6179033;23;20013;-68
2021/12/17 03:06:56;;;;;;;42.13;33.13;;;;;;;-0.91;100.00;97320.16;6179138;23;20448;-69
2021/12/17 03:09:35;;;;;;;37.63;29.00;;;;;;;-0.92;100.00;97326.22;6179397;23;20012;-68
2021/12/17 03:12:01;;;;;;;38.45;30.95;;;;;;;-0.98;100.00;97331.53;6179450;23;20009;-68
2021/12/17 03:14:28;;;;;;;35.25;29.05;;;;;;;-1.03;100.00;97323.84;6179152;23;20028;-68
2021/12/17 03:17:03;;;;;;;46.22;32.50;;;;;;;-1.01;100.00;97323.81;6179506;23;20070;-69
2021/12/17 03:24:56;;;;;;;34.97;29.13;;;;;;;-0.95;100.00;97330.59;6178134;23;20039;-68
2021/12/17 03:27:22;;;;;;;37.35;30.40;;;;;;;-0.85;100.00;97324.38;6179201;23;20005;-68
2021/12/17 03:29:47;;;;;;;38.00;29.45;;;;;;;-0.92;100.00;97338.28;6179332;23;20001;-68
2021/12/17 03:32:12;;;;;;;35.67;27.90;;;;;;;-0.82;100.00;97336.38;6179154;23;20005;-68
2021/12/17 03:34:38;;;;;;;37.92;29.98;;;;;;;-0.77;100.00;97334.56;6179203;23;20352;-68
2021/12/17 03:37:04;;;;;;;39.53;29.00;;;;;;;-0.81;100.00;97327.72;6179306;23;20433;-68
2021/12/17 03:39:30;;;;;;;39.58;30.25;;;;;;;-0.87;100.00;97339.91;6179404;23;20029;-69
2021/12/17 03:41:57;;;;;;;33.53;28.85;;;;;;;-0.73;100.00;97331.03;6179592;23;20012;-68
2021/12/17 03:44:24;;;;;;;36.08;28.67;;;;;;;-0.67;100.00;97333.47;6179106;23;20009;-69
2021/12/17 03:46:51;;;;;;;37.03;28.58;;;;;;;-0.69;100.00;97332.66;6179231;23;20001;-68
2021/12/17 03:49:18;;;;;;;36.65;29.17;;;;;;;-0.68;100.00;97344.72;6179170;23;20325;-68
2021/12/17 03:51:54;;;;;;;33.97;26.83;;;;;;;-0.72;100.00;97340.50;6179020;23;20085;-68
2021/12/17 03:54:20;;;;;;;34.40;26.63;;;;;;;-0.63;100.00;97337.69;6179437;23;20058;-68
2021/12/17 03:56:45;;;;;;;36.28;24.13;;;;;;;-0.55;100.00;97339.25;6179049;23;20005;-69
2021/12/17 03:59:11;;;;;;;27.17;23.25;;;;;;;-0.58;100.00;97345.38;6179379;23;20005;-69
2021/12/17 04:01:38;;;;;;;37.45;23.52;;;;;;;-0.63;100.00;97347.22;6177783;23;20012;-69
2021/12/17 04:04:04;;;;;;;28.75;24.52;;;;;;;-0.73;100.00;97341.38;6179022;23;20032;-69
2021/12/17 04:06:29;;;;;;;27.98;23.75;;;;;;;-0.84;100.00;97333.84;6179072;23;20005;-68
2021/12/17 04:08:55;;;;;;;28.17;24.02;;;;;;;-0.89;100.00;97335.63;6179105;23;20066;-69
2021/12/17 04:11:21;;;;;;;27.88;23.00;;;;;;;-0.90;100.00;97342.56;6179369;23;20298;-69
2021/12/17 04:13:56;;;;;;;25.08;22.35;;;;;;;-0.78;100.00;97340.59;6179087;23;20013;-69
2021/12/17 04:16:26;;;;;;;27.80;21.27;;;;;;;-0.79;100.00;97338.88;6179144;23;20001;-69
2021/12/17 04:18:51;;;;;;;25.90;20.70;;;;;;;-0.80;100.00;97347.53;6179276;23;20006;-68
2021/12/17 04:21:17;;;;;;;21.98;19.55;;;;;;;-0.68;100.00;97343.84;6179024;23;20008;-68
2021/12/17 04:23:45;;;;;;;23.17;20.30;;;;;;;-0.62;100.00;97343.75;6179063;23;20032;-69
2021/12/17 04:26:11;;;;;;;25.50;20.73;;;;;;;-0.69;100.00;97358.53;6178748;23;20009;-69
2021/12/17 04:28:43;;;;;;;20.67;18.48;;;;;;;-0.68;100.00;97362.81;6178910;23;20032;-68
2021/12/17 04:31:08;;;;;;;20.67;18.20;;;;;;;-0.68;100.00;97360.22;6179390;23;20013;-68
2021/12/17 04:33:34;;;;;;;21.75;17.73;;;;;;;-0.66;100.00;97362.81;6178953;23;20076;-68
2021/12/17 04:35:59;;;;;;;20.00;17.83;;;;;;;-0.61;100.00;97364.38;6179122;23;20008;-68
2021/12/17 04:38:26;;;;;;;20.08;17.67;;;;;;;-0.59;100.00;97366.94;6178961;23;20009;-69
2021/12/17 04:40:53;;;;;;;22.65;19.48;;;;;;;-0.62;99.84;97369.59;6178896;23;20456;-68
2021/12/17 04:43:42;;;;;;;26.65;20.98;;;;;;;-0.63;100.00;97373.91;6178937;23;20024;-68
2021/12/17 04:59:41;;;;;;;31.83;26.05;;;;;;;-0.88;100.00;97400.28;6179208;23;20009;-68
2021/12/17 05:02:06;;;;;;;35.13;28.40;;;;;;;-0.87;100.00;97391.63;6179066;23;20001;-69
2021/12/17 05:04:32;;;;;;;34.90;28.02;;;;;;;-0.90;100.00;97389.09;6178682;23;20468;-68
2021/12/17 05:06:57;;;;;;;36.65;28.80;;;;;;;-0.94;100.00;97382.28;6178519;23;20058;-69
2021/12/17 05:09:37;;;;;;;34.58;27.23;;;;;;;-0.94;100.00;97382.28;6178431;23;20020;-69
2021/12/17 05:20:41;;;;;;;33.60;28.30;;;;;;;-0.95;100.00;97388.34;6178827;23;20055;-69
2021/12/17 05:22:58;;;;;;;34.60;28.08;;;;;;;-0.92;100.00;97388.28;6178760;23;20033;-69
2021/12/17 05:25:26;;;;;;;33.85;28.88;;;;;;;-0.90;100.00;97390.81;6177841;23;20009;-69
2021/12/17 05:27:54;;;;;;;35.00;28.50;;;;;;;-0.89;100.00;97383.06;6178607;23;20080;-69
2021/12/17 05:30:19;;;;;;;39.03;27.83;;;;;;;-0.90;100.00;97386.53;6178512;23;20072;-69
2021/12/17 05:32:44;;;;;;;34.65;28.58;;;;;;;-0.91;100.00;97389.13;6178540;23;20028;-69
2021/12/17 05:35:10;;;;;;;33.03;27.42;;;;;;;-0.90;100.00;97391.69;6178830;23;20040;-69
2021/12/17 05:37:35;;;;;;;33.83;27.58;;;;;;;-0.88;100.00;97391.69;6178560;23;20008;-69
2021/12/17 05:40:01;;;;;;;33.67;26.10;;;;;;;-0.88;100.00;97379.59;6178899;23;20062;-69
2021/12/17 05:42:26;;;;;;;29.88;26.02;;;;;;;-0.91;100.00;97379.66;6178573;23;20469;-69
2021/12/17 05:44:56;;;;;;;24.75;22.02;;;;;;;-0.92;100.00;97380.53;6178591;23;20078;-68
2021/12/17 05:47:21;;;;;;;22.80;20.40;;;;;;;-0.79;100.00;97395.78;6178499;23;20001;-68
2021/12/17 05:49:47;;;;;;;21.98;19.13;;;;;;;-0.67;100.00;97392.09;6178409;23;20005;-68
2021/12/17 05:52:12;;;;;;;21.23;18.13;;;;;;;-0.76;100.00;97400.94;6177346;23;20036;-68
2021/12/17 05:54:37;;;;;;;25.33;19.60;;;;;;;-0.79;100.00;97400.97;6178379;23;20009;-68
2021/12/17 05:57:03;;;;;;;21.75;19.00;;;;;;;-0.77;100.00;97407.00;6178566;23;20005;-69
2021/12/17 05:59:34;;;;;;;25.15;20.52;;;;;;;-0.79;100.00;97409.59;6178568;23;20076;-68
2021/12/17 06:02:01;;;;;;;21.77;19.48;;;;;;;-0.85;100.00;97404.53;6178312;23;20080;-69
2021/12/17 06:04:26;;;;;;;25.90;20.83;;;;;;;-0.93;100.00;97414.16;6148953;22;20009;-69
2021/12/17 06:06:51;;;;;;;23.98;19.58;;;;;;;-0.95;100.00;97419.38;6148697;23;20347;-69
2021/12/17 06:09:17;;;;;;;20.75;17.95;;;;;;;-0.96;100.00;97419.41;6148572;23;20142;-69
2021/12/17 06:11:42;;;;;;;23.00;19.75;;;;;;;-0.98;100.00;97422.03;6149097;22;20472;-68
2021/12/17 06:14:08;;;;;;;24.40;21.33;;;;;;;-0.97;100.00;97423.72;6147449;23;20345;-69
2021/12/17 06:16:34;;;;;;;27.52;22.83;;;;;;;-0.95;100.00;97421.09;6148441;23;20014;-68
2021/12/17 06:19:01;;;;;;;27.67;23.58;;;;;;;-0.94;100.00;97421.09;6149176;23;20081;-70
2021/12/17 06:21:27;;;;;;;27.42;24.02;;;;;;;-0.84;100.00;97429.53;6149366;23;20464;-70
2021/12/17 06:23:52;;;;;;;29.83;23.70;;;;;;;-0.77;100.00;97428.53;6149699;23;20009;-68
2021/12/17 06:26:18;;;;;;;29.38;25.48;;;;;;;-0.82;100.00;97425.16;6149929;23;20016;-72
2021/12/17 06:28:43;;;;;;;30.52;23.92;;;;;;;-0.81;100.00;97420.84;6149991;23;20420;-67
2021/12/17 06:31:09;;;;;;;30.50;24.60;;;;;;;-0.81;100.00;97418.25;6149442;23;20452;-70
2021/12/17 06:33:34;;;;;;;26.98;24.15;;;;;;;-0.88;100.00;97413.19;6149204;23;20081;-68
2021/12/17 06:35:59;;;;;;;30.35;24.13;;;;;;;-0.84;100.00;97423.50;6148891;23;20035;-69
2021/12/17 06:38:25;;;;;;;28.33;25.27;;;;;;;-0.85;100.00;97421.78;6148408;23;20459;-68
2021/12/17 06:40:53;;;;;;;29.70;23.83;;;;;;;-0.84;100.00;97418.31;6148731;23;20013;-68
2021/12/17 06:43:22;;;;;;;30.02;24.65;;;;;;;-0.84;100.00;97420.91;6149424;22;20085;-69
2021/12/17 06:46:01;;;;;;;28.45;23.67;;;;;;;-0.87;100.00;97424.41;6148100;23;20098;-69
2021/12/17 06:48:29;;;;;;;28.58;24.70;;;;;;;-0.91;100.00;97417.56;6149209;23;20345;-69
2021/12/17 07:18:10;;;;;;;22.98;20.52;;;;;;;-0.86;100.00;97454.56;6148772;23;20059;-68
2021/12/17 07:23:11;;;;;;;27.58;22.75;;;;;;;-0.72;100.00;97467.25;6148707;23;20013;-69
2021/12/17 07:34:13;;;;;;;28.17;25.20;;;;;;;-0.74;100.00;97495.72;6125263;23;20002;-60
2021/12/17 07:36:44;;;;;;;28.80;25.75;;;;;;;-0.67;100.00;97493.00;6145559;23;20005;-59
2021/12/17 07:39:10;;;;;;;29.15;24.77;;;;;;;-0.69;100.00;97492.19;6147876;23;20001;-59
2021/12/17 07:41:36;;;;;;;33.95;28.55;;;;;;;-0.60;100.00;97500.63;6148424;22;20016;-58
2021/12/17 07:44:02;;;;;;;34.58;27.83;;;;;;;-0.68;100.00;97493.88;6148522;23;20040;-60
2021/12/17 07:46:29;;;;;;;37.00;28.70;;;;;;;-0.58;100.00;97496.28;6147748;22;20009;-60
2021/12/17 07:48:55;;;;;;;29.00;24.80;;;;;;;-0.65;100.00;97497.28;6148736;23;20005;-60
2021/12/17 07:51:22;;;;;;;35.10;27.95;;;;;;;-0.67;100.00;97501.63;6148591;23;20396;-59
2021/12/17 07:53:48;;;;;;;33.80;27.15;;;;;;;-0.68;100.00;97505.09;6149013;23;20002;-58
2021/12/17 07:56:18;;;;;;;33.88;28.10;;;;;;;-0.64;100.00;97504.16;6148766;23;20025;-60
2021/12/17 07:58:43;;;;;;;35.50;28.88;;;;;;;-0.78;100.00;97501.81;6147399;23;20013;-59
2021/12/17 08:01:10;;;;;;;38.85;32.45;;;;;;;-0.84;100.00;97503.66;6148760;23;20008;-59
2021/12/17 08:03:37;;;;;;;37.47;31.58;;;;;;;-0.86;100.00;97503.72;6163720;23;20013;-60
2021/12/17 08:06:03;;;;;;;38.55;31.92;;;;;;;-0.90;100.00;97504.63;6149422;22;20083;-60
2021/12/17 08:08:29;;;;;;;34.25;29.38;;;;;;;-0.90;100.00;97509.78;6177265;23;20001;-60
2021/12/17 08:10:55;;;;;;;34.08;29.08;;;;;;;-0.91;100.00;97514.13;6176989;23;20001;-60
2021/12/17 08:13:27;;;;;;;41.25;33.40;;;;;;;-0.84;100.00;97519.19;6176216;23;20410;-60
2021/12/17 08:24:39;;;;;;;31.88;25.85;;;;;;;-0.67;100.00;97511.97;6177203;23;20464;-60
2021/12/17 08:32:00;;;;;;;31.80;27.00;;;;;;;-0.67;100.00;97522.31;6176425;23;20453;-61
2021/12/17 08:34:25;;;;;;;32.22;26.23;;;;;;;-0.67;100.00;97516.28;6177536;23;20514;-61
2021/12/17 08:36:51;;;;;;;37.33;29.42;;;;;;;-0.67;100.00;97517.16;6178196;23;20001;-61
2021/12/17 08:39:17;;;;;;;45.90;29.90;;;;;;;-0.66;100.00;97512.84;6177551;23;20005;-62
2021/12/17 08:41:44;;;;;;;49.22;34.72;;;;;;;-0.64;100.00;97513.66;6175673;23;20009;-61
2021/12/17 08:44:09;;;;;;;42.58;33.20;;;;;;;-0.63;100.00;97512.78;6174475;23;20013;-61
2021/12/17 08:46:36;;;;;;;45.45;31.35;;;;;;;-0.60;100.00;97508.38;6176099;23;20019;-61
2021/12/17 08:49:03;;;;;;;52.80;36.47;;;;;;;-0.45;100.00;97507.25;6177284;23;20046;-61
2021/12/17 08:51:29;;;;;;;57.80;37.15;;;;;;;-0.49;100.00;97502.19;6149669;23;20008;-61
2021/12/17 08:53:55;;;;;;;48.25;35.33;;;;;;;-0.49;100.00;97510.78;6177323;23;20476;-61
2021/12/17 08:56:22;;;;;;;35.60;28.95;;;;;;;-0.45;100.00;97511.56;6176962;23;20009;-62
2021/12/17 08:58:51;;;;;;;41.40;30.20;;;;;;;-0.41;99.23;97502.03;6177357;23;20044;-62
2021/12/17 09:01:16;;;;;;;36.90;29.17;;;;;;;-0.42;99.01;97510.69;6176790;23;20455;-62
2021/12/17 09:03:42;;;;;;;37.92;29.95;;;;;;;-0.39;98.95;97513.22;6176751;23;20009;-61
2021/12/17 09:06:07;;;;;;;34.72;27.45;;;;;;;-0.35;98.29;97509.66;6150737;23;20011;-61
2021/12/17 09:08:33;;;;;;;33.05;26.33;;;;;;;-0.25;98.72;97507.75;6177663;23;20005;-61
2021/12/17 09:10:58;;;;;;;28.48;24.48;;;;;;;-0.24;98.58;97510.28;6177138;23;20028;-62
2021/12/17 09:13:25;;;;;;;30.45;25.77;;;;;;;-0.28;98.69;97520.75;6176947;23;20002;-62
2021/12/17 09:16:04;;;;;;;31.17;26.20;;;;;;;-0.18;98.47;97514.50;6150603;23;20445;-61
2021/12/17 09:18:30;;;;;;;26.75;22.30;;;;;;;-0.22;98.20;97523.22;6175729;23;20004;-61
2021/12/17 09:20:55;;;;;;;26.90;22.83;;;;;;;-0.08;97.45;97534.16;6176324;23;20622;-61
2021/12/17 09:23:22;;;;;;;21.25;19.05;;;;;;;-0.15;97.24;97525.66;6177480;23;20344;-61
2021/12/17 09:25:47;;;;;;;22.38;17.92;;;;;;;-0.15;96.33;97529.97;6176830;23;20350;-61
2021/12/17 09:28:13;;;;;;;22.55;20.15;;;;;;;-0.16;96.94;97528.28;6177312;23;20012;-61
2021/12/17 09:30:39;;;;;;;23.23;20.83;;;;;;;-0.11;96.98;97528.19;6175411;23;20009;-60
2021/12/17 09:33:05;;;;;;;22.70;20.35;;;;;;;-0.01;96.60;97537.47;6176032;22;20013;-59
2021/12/17 09:35:31;;;;;;;24.55;21.73;;;;;;;0.05;96.37;97541.66;6174326;23;20031;-56
2021/12/17 09:37:56;;;;;;;23.45;20.95;;;;;;;0.24;95.77;97542.16;6175802;23;20005;-58
2021/12/17 09:40:21;;;;;;;25.08;22.20;;;;;;;0.16;95.54;97550.09;6176211;23;20828;-60
2021/12/17 09:42:49;;;;;;;29.52;26.17;;;;;;;0.23;95.90;97543.03;6176810;23;20050;-60
2021/12/17 09:45:16;;;;;;;26.70;23.80;;;;;;;0.19;96.48;97543.97;6175346;23;20067;-60
2021/12/17 09:47:43;;;;;;;26.77;23.88;;;;;;;0.16;96.17;97544.91;6176579;23;20082;-55
2021/12/17 09:50:10;;;;;;;27.30;23.58;;;;;;;0.21;96.54;97547.38;6176066;23;20005;-56
2021/12/17 09:52:36;;;;;;;28.63;25.67;;;;;;;0.27;96.30;97545.50;6174548;23;20035;-59
2021/12/17 09:55:04;;;;;;;28.73;25.10;;;;;;;0.23;96.41;97543.88;6149667;23;20017;-60
2021/12/17 09:57:35;;;;;;;39.50;31.48;;;;;;;0.22;95.91;97549.94;6176391;23;20055;-60
2021/12/17 10:00:11;;;;;;;34.85;29.25;;;;;;;0.14;96.11;97549.28;6175018;23;20009;-60
2021/12/17 10:02:37;;;;;;;28.58;25.58;;;;;;;0.14;96.06;97541.50;6184224;22;20026;-60
2021/12/17 10:05:03;;;;;;;30.05;26.88;;;;;;;0.25;96.06;97539.53;6304158;22;20011;-59
2021/12/17 10:07:30;;;;;;;30.45;25.98;;;;;;;0.40;95.84;97537.50;6301965;22;20011;-61
2021/12/17 10:09:57;;;;;;;30.40;27.20;;;;;;;0.39;95.78;97528.84;6301362;22;20003;-61
2021/12/17 10:12:28;;;;;;;33.08;27.77;;;;;;;0.38;96.31;97539.25;6305215;22;20000;-61
2021/12/17 10:15:14;;;;;;;40.00;29.13;;;;;;;0.43;95.82;97532.22;6303596;22;20015;-61
2021/12/17 10:18:03;;;;;;;32.63;27.27;;;;;;;0.42;94.81;97540.91;6303652;22;19999;-60
2021/12/17 10:20:34;;;;;;;25.80;22.88;;;;;;;0.46;95.58;97526.97;6305040;22;20007;-61
2021/12/17 10:23:06;;;;;;;25.13;22.35;;;;;;;0.52;94.39;97528.59;6303564;22;20006;-60
2021/12/17 10:25:34;;;;;;;26.52;22.88;;;;;;;0.61;93.90;97524.94;6303285;22;20090;-61
2021/12/17 10:28:03;;;;;;;26.88;24.00;;;;;;;0.65;93.91;97518.78;6304638;22;20080;-60
2021/12/17 10:30:31;;;;;;;27.55;24.20;;;;;;;0.69;93.82;97515.22;6305079;22;19999;-60
2021/12/17 10:32:59;;;;;;;32.15;27.00;;;;;;;0.70;93.96;97519.53;6304699;22;19999;-61
2021/12/17 10:35:27;;;;;;;26.52;23.77;;;;;;;0.70;93.55;97511.75;6305056;22;19999;-61
2021/12/17 10:38:00;;;;;;;29.10;25.35;;;;;;;0.70;93.40;97519.53;6306037;22;20030;-60
2021/12/17 10:40:34;;;;;;;28.00;24.90;;;;;;;0.71;93.45;97518.63;6302873;22;20690;-60
2021/12/17 10:43:07;;;;;;;30.58;27.40;;;;;;;0.70;93.90;97520.41;6302638;22;20060;-60
2021/12/17 10:45:41;;;;;;;28.70;25.45;;;;;;;0.71;92.86;97524.69;6302504;22;20042;-61
2021/12/17 10:51:07;;;;;;;29.63;26.48;;;;;;;0.74;93.34;97520.31;6270212;22;20007;-60
2021/12/17 10:53:33;;;;;;;31.70;27.80;;;;;;;0.79;93.61;97524.50;6301772;22;20010;-60
2021/12/17 10:55:59;;;;;;;32.22;27.15;;;;;;;0.90;93.37;97524.25;6302989;22;20078;-61
2021/12/17 10:58:25;;;;;;;28.50;25.13;;;;;;;0.85;93.92;97516.56;6303607;22;20003;-60
2021/12/17 11:01:05;;;;;;;30.67;26.60;;;;;;;0.99;94.53;97524.00;6304210;22;20082;-61
2021/12/17 11:03:39;;;;;;;27.00;24.15;;;;;;;1.18;93.62;97520.97;6223137;22;20390;-60
2021/12/17 11:06:04;;;;;;;32.33;25.10;;;;;;;1.17;93.25;97523.59;6177330;23;20013;-60
2021/12/17 11:08:33;;;;;;;28.67;25.58;;;;;;;1.07;92.79;97521.25;6176332;23;20028;-61
2021/12/17 11:11:09;;;;;;;27.23;24.33;;;;;;;1.04;93.02;97529.09;6177972;22;20008;-61
2021/12/17 11:13:37;;;;;;;27.92;24.42;;;;;;;1.08;93.43;97520.34;6149837;23;20009;-61
2021/12/17 11:16:02;;;;;;;32.85;26.77;;;;;;;1.02;92.86;97525.69;6177823;23;20013;-62
2021/12/17 11:18:28;;;;;;;34.00;28.65;;;;;;;1.09;93.20;97516.84;6177574;23;20047;-62
2021/12/17 11:20:55;;;;;;;29.65;26.40;;;;;;;1.29;92.59;97512.91;6176225;23;20013;-61
2021/12/17 11:23:22;;;;;;;33.15;27.50;;;;;;;1.22;92.30;97512.22;6177502;23;20005;-62
2021/12/17 11:25:50;;;;;;;30.25;25.42;;;;;;;1.34;91.73;97515.41;6178329;23;20009;-64
2021/12/17 11:28:15;;;;;;;29.70;26.45;;;;;;;1.28;91.63;97513.81;6177974;23;20012;-60
2021/12/17 11:30:47;;;;;;;29.65;26.48;;;;;;;1.28;92.35;97500.81;6176896;23;20005;-60
2021/12/17 11:33:13;;;;;;;29.33;26.30;;;;;;;1.33;91.40;97498.97;6177012;23;20001;-60
2021/12/17 11:35:42;;;;;;;27.70;24.73;;;;;;;1.49;91.50;97498.56;6177256;23;20031;-60
2021/12/17 11:38:14;;;;;;;30.75;26.92;;;;;;;1.72;90.15;97492.72;6150098;23;20005;-62
2021/12/17 11:40:50;;;;;;;27.33;24.45;;;;;;;1.76;89.60;97490.91;6151125;23;20013;-62
2021/12/17 11:43:37;;;;;;;26.77;23.95;;;;;;;1.83;88.53;97489.81;6177390;23;20076;-60
2021/12/17 11:46:12;;;;;;;27.15;23.90;;;;;;;1.85;88.59;97488.03;6177255;23;20009;-61
2021/12/17 11:48:38;;;;;;;27.38;23.77;;;;;;;1.82;88.30;97477.72;6176498;23;20005;-61
2021/12/17 11:51:17;;;;;;;28.73;25.65;;;;;;;1.85;88.29;97480.22;6177908;23;20008;-61
2021/12/17 11:54:10;;;;;;;30.50;25.88;;;;;;;1.91;88.08;97472.28;6177015;23;20005;-60
2021/12/17 11:56:47;;;;;;;27.75;24.95;;;;;;;1.86;88.15;97469.81;6176301;23;20012;-60
2021/12/17 11:59:25;;;;;;;35.10;30.30;;;;;;;1.89;88.32;97470.63;6177269;23;20070;-61
2021/12/17 12:02:22;;;;;;;33.33;29.30;;;;;;;2.08;87.83;97463.97;6177598;23;20080;-61
2021/12/17 12:04:54;;;;;;;31.48;27.80;;;;;;;2.15;86.84;97455.09;6176987;23;20020;-61
2021/12/17 12:07:32;;;;;;;28.75;25.33;;;;;;;2.08;87.22;97457.91;6150985;22;20326;-60
2021/12/17 12:10:19;;;;;;;26.40;23.77;;;;;;;2.05;87.36;97452.81;6178469;23;20009;-61
2021/12/17 12:12:57;;;;;;;27.60;24.70;;;;;;;1.93;87.73;97435.84;6177349;23;20437;-60
2021/12/17 12:15:23;;;;;;;27.80;24.63;;;;;;;1.88;88.40;97443.81;6177492;23;20015;-61
2021/12/17 12:17:57;;;;;;;28.08;24.48;;;;;;;1.97;88.04;97440.06;6175621;23;20073;-60
2021/12/17 12:20:44;;;;;;;25.75;23.05;;;;;;;1.83;88.51;97433.53;6175207;23;20001;-60
2021/12/17 12:23:18;;;;;;;27.42;24.55;;;;;;;1.83;88.53;97433.53;6176544;23;20005;-61
2021/12/17 12:26:04;;;;;;;25.95;23.25;;;;;;;1.76;88.82;97431.16;6174399;23;20012;-61
2021/12/17 12:28:45;;;;;;;25.70;22.98;;;;;;;1.75;88.79;97432.06;6149172;23;20016;-61
2021/12/17 12:31:19;;;;;;;25.20;22.70;;;;;;;1.73;88.49;97433.84;6149154;23;20009;-60
2021/12/17 12:34:40;;;;;;;24.48;21.92;;;;;;;1.65;88.19;97441.84;6173720;23;20340;-61
2021/12/17 12:37:10;;;;;;;27.27;22.42;;;;;;;1.70;88.35;97435.66;6170499;23;20089;-60
2021/12/17 12:39:38;;;;;;;23.42;21.02;;;;;;;1.78;88.11;97437.16;6173801;23;20005;-60
2021/12/17 12:42:19;;;;;;;24.75;21.95;;;;;;;1.85;88.82;97443.88;6172963;23;20336;-60
2021/12/17 12:44:44;;;;;;;24.95;22.25;;;;;;;1.88;88.33;97438.59;6175766;23;20012;-60
2021/12/17 12:47:12;;;;;;;24.98;22.35;;;;;;;1.92;88.49;97445.41;6174708;23;20337;-60
2021/12/17 12:49:56;;;;;;;23.85;21.65;;;;;;;2.06;87.71;97437.19;6174261;23;20009;-60
2021/12/17 12:52:43;;;;;;;27.10;22.67;;;;;;;2.22;86.60;97437.56;6147479;23;20009;-61
2021/12/17 12:55:15;;;;;;;25.33;22.80;;;;;;;2.16;86.81;97432.56;6174853;23;20098;-60
2021/12/17 12:57:47;;;;;;;25.55;23.00;;;;;;;2.31;86.23;97430.38;6148662;23;20016;-60
2021/12/17 13:00:23;;;;;;;24.67;22.02;;;;;;;2.44;85.30;97431.69;6174787;23;20078;-60
2021/12/17 13:02:53;;;;;;;24.98;22.30;;;;;;;2.41;84.86;97424.00;6176756;23;20013;-60
2021/12/17 13:05:18;;;;;;;26.35;23.50;;;;;;;2.26;85.60;97420.16;6175607;23;20109;-60
2021/12/17 13:07:50;;;;;;;24.80;22.30;;;;;;;2.17;85.82;97416.09;6176643;23;20036;-60
2021/12/17 13:10:23;;;;;;;24.95;22.38;;;;;;;2.07;86.01;97412.06;6176063;23;20501;-59
2021/12/17 13:13:15;;;;;;;25.85;23.15;;;;;;;1.97;86.44;97408.88;6176266;23;20448;-59
2021/12/17 13:23:22;;;;;;;26.95;24.08;;;;;;;1.84;87.50;97400.59;6177122;23;20069;-59
2021/12/17 13:26:05;;;;;;;26.30;23.52;;;;;;;1.88;87.42;97391.84;6176083;23;20048;-59
2021/12/17 13:28:50;;;;;;;26.80;23.95;;;;;;;1.72;87.44;97388.84;6176159;23;20187;-59
2021/12/17 13:31:49;;;;;;;24.92;22.48;;;;;;;1.69;88.17;97389.81;6176383;23;20005;-59
2021/12/17 13:34:53;;;;;;;28.92;25.25;;;;;;;1.64;88.01;97393.41;6175901;23;20052;-59
2021/12/17 13:37:22;;;;;;;29.73;26.17;;;;;;;1.54;88.26;97391.06;6176223;23;20372;-59
2021/12/17 13:39:58;;;;;;;28.10;23.05;;;;;;;1.51;88.31;97396.34;6176594;23;20345;-60
2021/12/17 13:42:25;;;;;;;26.75;23.58;;;;;;;1.47;88.54;97389.56;6176467;23;20005;-59
2021/12/17 13:44:51;;;;;;;27.45;24.20;;;;;;;1.48;88.05;97393.03;6176165;23;20352;-60
2021/12/17 13:47:23;;;;;;;26.73;23.83;;;;;;;1.51;88.39;97396.34;6174247;23;20005;-59
2021/12/17 13:50:11;;;;;;;28.80;24.42;;;;;;;1.76;87.86;97382.66;6149759;23;20004;-59
2021/12/17 13:52:43;;;;;;;25.92;22.23;;;;;;;1.71;88.04;97388.00;6149080;23;20020;-59
2021/12/17 13:55:11;;;;;;;30.20;25.48;;;;;;;1.60;87.50;97392.66;6148939;23;20121;-59
2021/12/17 13:57:36;;;;;;;26.00;23.23;;;;;;;1.60;88.23;97391.81;6176582;23;20087;-59
2021/12/17 14:00:11;;;;;;;23.95;21.40;;;;;;;1.53;88.41;97396.31;6176360;23;20405;-59
2021/12/17 14:02:38;;;;;;;28.77;22.73;;;;;;;1.47;89.48;97396.50;6175671;23;20028;-59
2021/12/17 14:05:10;;;;;;;25.77;22.73;;;;;;;1.42;89.01;97397.47;6149717;23;20017;-59
2021/12/17 14:07:38;;;;;;;28.90;24.23;;;;;;;1.39;89.22;97396.72;6176050;23;20479;-59
2021/12/17 14:10:17;;;;;;;35.05;29.20;;;;;;;1.37;90.35;97407.13;6175490;23;20068;-59
2021/12/17 14:12:43;;;;;;;27.85;24.63;;;;;;;1.37;89.49;97401.94;6176114;23;20005;-59
2021/12/17 14:15:30;;;;;;;29.70;26.60;;;;;;;1.41;89.82;97402.72;6175779;23;20072;-59
2021/12/17 14:18:07;;;;;;;28.92;25.77;;;;;;;1.36;89.33;97408.03;6175233;23;20012;-60
2021/12/17 14:20:52;;;;;;;29.33;26.13;;;;;;;1.29;89.99;97404.75;6149838;23;20066;-59
2021/12/17 14:23:19;;;;;;;38.08;32.17;;;;;;;1.22;90.20;97405.81;6176534;23;20341;-61
2021/12/17 14:25:53;;;;;;;35.53;29.08;;;;;;;1.11;90.59;97400.94;6176712;23;20009;-60
2021/12/17 14:28:25;;;;;;;37.50;31.08;;;;;;;1.06;90.24;97408.00;6175438;23;20508;-60
2021/12/17 14:30:56;;;;;;;35.92;30.75;;;;;;;0.95;90.95;97413.47;6176375;23;20344;-61
2021/12/17 14:33:25;;;;;;;29.80;26.33;;;;;;;0.91;90.86;97413.56;6176048;23;20028;-60